Aérodrome :
LOGIN :

S'inscrire | Disclaimer

   EN    FR    IT 

 










Légende :    VFR   VFR Marginal   IFR   IFR Intensif   IFR Très Intensif
Visi : 
Plafond : 
>= 8 km
>= 3000ft
5 à 8 km
1000 à 3000 ft
1500m à 5 km
500 à 1000 ft
800 à 1500m
200 à 500 ft
< 800m
< 200 ft
Symboles :   Orages  Brouillard  Fortes neiges  Fortes précipitations  Vent > 20 kt
SIGMETs :   Divers  Orages  Givrage  Turbulence  Onde Orograph.  Cendres Volcan.






- Altitude de l'aérodrome : 1090 ft
- Code IATA : CFE


LFLC - Clermont-Ferrand Auvergne

DERNIER METAR :
  • 200530Z AUTO 17026KT CAVOK 09/01 Q1009 TEMPO 18020G30KT

METARs EXPIRÉS :
  • 200500Z AUTO 16025KT CAVOK 09/01 Q1009 TEMPO 18020G30KT
  • 200430Z AUTO 17023KT CAVOK 08/M00 Q1010 TEMPO 18020G30KT
  • 200400Z AUTO 18024KT CAVOK 07/M01 Q1010 TEMPO 18020G30KT
  • 200330Z AUTO 19021KT CAVOK 07/M03 Q1010 TEMPO 18020G30KT
  • 200300Z AUTO 19019KT CAVOK 06/M03 Q1010 TEMPO 18020G30KT

TAF TAF LFLC
Valide du 20 à 00h jusqu'au 21 à 00h UTC


192300Z 2000/2024 18015KT CAVOK
TEMPO 2000/2010 18020G30KT
FM201000 18020G35KT CAVOK
PROB30
TEMPO 2013/2017 18030G45KT
BECMG 2022/2024 18015G25KT
ATIS : +33 4 73 62 74 38



MET'MAP, la Météo Aéronautique d'un coup d'oeil ! - Copyright ORBIFLY Décembre 2007 - Disclaimer

ORBIFLY MET'MAP TEAM :

Programmation & Développement : Alexandra Zaïnal
Sur une idée originale de : Baudouin d'Aumeries
Assistance à la programmation : Marc-Olivier Méhu
Soutien technique & logistique : Manuel Goepfert

Contact : metmap@orbifly.com




SOURCES & CREDITS :

   NOAA